createdAt,value
2022-12-18T00:00:48.532Z,89.57
2022-12-18T00:03:15.646Z,79.82
2022-12-18T00:05:51.402Z,83.85
2022-12-18T00:08:17.896Z,76.03
2022-12-18T00:10:44.499Z,93.82
2022-12-18T00:13:11.411Z,83.65
2022-12-18T00:15:38.926Z,81.72
2022-12-18T00:18:05.297Z,84.88
2022-12-18T00:20:31.682Z,79.07
2022-12-18T00:22:57.966Z,81.90
2022-12-18T00:25:24.299Z,80.82
2022-12-18T00:27:50.670Z,82.50
2022-12-18T00:30:17.205Z,88.75
2022-12-18T00:32:43.520Z,80.88
2022-12-18T00:35:09.880Z,84.50
2022-12-18T00:37:36.182Z,78.07
2022-12-18T00:40:02.567Z,79.75
2022-12-18T00:42:47.286Z,94.20
2022-12-18T00:45:13.535Z,77.18
2022-12-18T00:47:39.945Z,85.90
2022-12-18T00:50:06.666Z,83.75
2022-12-18T00:52:32.949Z,79.70
2022-12-18T00:55:04.487Z,89.95
2022-12-18T00:57:32.395Z,77.35
2022-12-18T00:59:58.662Z,83.32
2022-12-18T01:02:25.088Z,81.38
2022-12-18T01:04:51.513Z,79.82
2022-12-18T01:07:17.799Z,84.28
2022-12-18T01:09:45.372Z,83.57
2022-12-18T01:12:11.649Z,75.75
2022-12-18T01:14:38.860Z,79.25
2022-12-18T01:17:05.650Z,74.82
2022-12-18T01:19:31.917Z,82.20
2022-12-18T01:21:58.522Z,80.97
2022-12-18T01:24:25.044Z,86.15
2022-12-18T01:26:51.324Z,73.85
2022-12-18T01:29:17.630Z,72.07
2022-12-18T01:31:43.952Z,77.32
2022-12-18T01:34:10.346Z,71.53
2022-12-18T01:36:37.967Z,79.00
2022-12-18T01:39:05.449Z,75.43
2022-12-18T01:41:50.942Z,81.15
2022-12-18T01:44:35.722Z,70.63
2022-12-18T01:47:02.076Z,79.25
2022-12-18T01:49:28.336Z,72.05
2022-12-18T01:51:54.606Z,69.85
2022-12-18T01:54:20.923Z,80.13
2022-12-18T01:56:47.158Z,82.85
2022-12-18T01:59:13.937Z,73.25
2022-12-18T02:01:40.587Z,77.78
2022-12-18T02:04:36.244Z,74.20
2022-12-18T02:07:08.230Z,72.00
2022-12-18T02:09:51.657Z,73.07
2022-12-18T02:12:20.465Z,69.85
2022-12-18T02:15:05.380Z,78.18
2022-12-18T02:17:38.036Z,71.55
2022-12-18T02:20:10.660Z,70.93
2022-12-18T02:22:42.858Z,80.65
2022-12-18T02:25:24.095Z,68.60
2022-12-18T02:27:51.557Z,66.18
2022-12-18T02:30:18.331Z,70.63
2022-12-18T02:32:47.006Z,64.38
2022-12-18T02:35:16.041Z,63.60
2022-12-18T02:37:44.473Z,71.43
2022-12-18T02:40:12.057Z,69.43
2022-12-18T02:42:38.357Z,75.18
2022-12-18T02:45:04.998Z,64.75
2022-12-18T02:47:37.041Z,63.85
2022-12-18T02:50:03.451Z,65.88
2022-12-18T02:52:29.665Z,69.88
2022-12-18T02:55:14.020Z,73.25
2022-12-18T02:57:59.326Z,67.00
2022-12-18T03:00:31.800Z,68.25
2022-12-18T03:02:58.123Z,71.80
2022-12-18T03:05:29.029Z,70.82
2022-12-18T03:08:15.267Z,68.63
2022-12-18T03:10:49.868Z,62.70
2022-12-18T03:13:42.578Z,66.70
2022-12-18T03:16:11.373Z,64.90
2022-12-18T03:18:46.858Z,63.40
2022-12-18T03:21:15.117Z,58.40
2022-12-18T03:23:44.018Z,66.63
2022-12-18T03:26:11.870Z,62.55
2022-12-18T03:28:40.481Z,61.05
2022-12-18T03:31:08.437Z,64.68
2022-12-18T03:33:48.081Z,58.53
2022-12-18T03:36:14.712Z,70.85
2022-12-18T03:38:40.995Z,59.47
2022-12-18T03:41:39.393Z,60.65
2022-12-18T03:44:05.655Z,57.33
2022-12-18T03:46:38.119Z,61.55
2022-12-18T03:49:10.624Z,64.53
2022-12-18T03:51:39.573Z,55.15
2022-12-18T03:54:07.441Z,52.50
2022-12-18T03:56:36.532Z,59.17
2022-12-18T03:59:03.962Z,58.67
2022-12-18T04:01:36.434Z,55.15
2022-12-18T04:04:03.538Z,56.55
2022-12-18T04:06:30.592Z,53.17
2022-12-18T04:08:58.110Z,52.90
2022-12-18T04:11:24.433Z,53.10
2022-12-18T04:13:50.667Z,58.13
2022-12-18T04:16:17.038Z,55.72
2022-12-18T04:18:43.333Z,58.67
2022-12-18T04:21:09.625Z,44.92
2022-12-18T04:23:35.922Z,55.63
2022-12-18T04:26:02.187Z,43.58
2022-12-18T04:28:28.481Z,51.63
2022-12-18T04:30:54.786Z,57.60
2022-12-18T04:33:21.098Z,54.22
2022-12-18T04:35:47.457Z,50.15
2022-12-18T04:38:13.851Z,48.45
2022-12-18T04:40:40.133Z,44.28
2022-12-18T04:43:08.186Z,44.00
2022-12-18T04:45:34.562Z,41.33
2022-12-18T04:48:01.531Z,46.15
2022-12-18T04:50:28.021Z,41.92
2022-12-18T04:52:54.273Z,42.47
2022-12-18T04:55:20.589Z,44.22
2022-12-18T04:57:46.799Z,45.75
2022-12-18T05:00:13.642Z,42.78
2022-12-18T05:02:40.059Z,40.92
2022-12-18T05:05:06.652Z,40.50
2022-12-18T05:07:32.945Z,44.45
2022-12-18T05:09:59.260Z,40.92
2022-12-18T05:12:25.591Z,44.65
2022-12-18T05:14:51.839Z,43.20
2022-12-18T05:17:18.134Z,41.92
2022-12-18T05:19:44.583Z,39.67
2022-12-18T05:22:10.898Z,37.80
2022-12-18T05:24:37.297Z,40.53
2022-12-18T05:27:03.566Z,44.90
2022-12-18T05:29:29.828Z,36.15
2022-12-18T05:31:56.545Z,38.00
2022-12-18T05:34:22.832Z,35.47
2022-12-18T05:36:49.055Z,32.35
2022-12-18T05:39:15.370Z,36.45
2022-12-18T05:41:41.657Z,33.88
2022-12-18T05:44:08.691Z,36.25
2022-12-18T05:46:34.976Z,32.63
2022-12-18T05:49:02.117Z,36.83
2022-12-18T05:51:28.830Z,38.15
2022-12-18T05:53:55.125Z,32.63
2022-12-18T05:56:22.323Z,36.03
2022-12-18T05:58:51.670Z,33.22
2022-12-18T06:01:19.243Z,30.10
2022-12-18T06:03:46.463Z,33.38
2022-12-18T06:06:14.237Z,28.65
2022-12-18T06:08:46.023Z,34.00
2022-12-18T06:11:12.821Z,30.65
2022-12-18T06:13:39.464Z,33.75
2022-12-18T06:16:06.808Z,39.03
2022-12-18T06:18:33.432Z,36.17
2022-12-18T06:20:59.945Z,33.33
2022-12-18T06:23:26.562Z,33.92
2022-12-18T06:25:53.201Z,34.65
2022-12-18T06:28:19.497Z,45.42
2022-12-18T06:30:47.882Z,41.17
2022-12-18T06:33:14.178Z,47.38
2022-12-18T06:35:40.469Z,45.88
2022-12-18T06:38:06.692Z,34.30
2022-12-18T06:40:32.993Z,35.85
2022-12-18T06:42:59.222Z,33.42
2022-12-18T06:45:25.495Z,36.78
2022-12-18T06:47:52.394Z,34.20
2022-12-18T06:50:18.736Z,31.40
2022-12-18T06:52:44.995Z,31.58
2022-12-18T06:55:12.009Z,31.67
2022-12-18T06:57:38.695Z,30.45
2022-12-18T07:00:05.982Z,32.95
2022-12-18T07:02:32.456Z,30.08
2022-12-18T07:04:58.861Z,32.72
2022-12-18T07:07:25.118Z,36.67
2022-12-18T07:09:51.890Z,36.20
2022-12-18T07:12:18.243Z,33.65
2022-12-18T07:14:44.642Z,35.85
2022-12-18T07:17:10.981Z,37.03
2022-12-18T07:19:37.340Z,35.22
2022-12-18T07:22:03.810Z,31.08
2022-12-18T07:24:30.831Z,30.30
2022-12-18T07:26:57.081Z,32.47
2022-12-18T07:29:23.349Z,37.17
2022-12-18T07:31:50.210Z,31.58
2022-12-18T07:34:16.745Z,34.47
2022-12-18T07:36:43.001Z,32.20
2022-12-18T07:39:09.525Z,54.60
2022-12-18T07:41:35.807Z,41.55
2022-12-18T07:44:02.112Z,41.17
2022-12-18T07:46:28.394Z,40.72
2022-12-18T07:48:54.769Z,37.42
2022-12-18T07:51:21.068Z,36.92
2022-12-18T07:53:49.275Z,31.27
2022-12-18T07:56:27.007Z,41.88
2022-12-18T07:58:54.811Z,41.53
2022-12-18T08:01:21.360Z,43.08
2022-12-18T08:03:47.952Z,41.80
2022-12-18T08:06:14.584Z,34.20
2022-12-18T08:08:42.566Z,35.45
2022-12-18T08:11:08.887Z,39.85
2022-12-18T08:13:35.256Z,40.38
2022-12-18T08:16:06.081Z,45.55
2022-12-18T08:18:38.622Z,34.85
2022-12-18T08:21:19.152Z,30.52
2022-12-18T08:23:47.997Z,27.35
2022-12-18T08:26:15.519Z,34.17
2022-12-18T08:28:41.824Z,29.48
2022-12-18T08:31:08.710Z,25.95
2022-12-18T08:33:35.774Z,32.13
2022-12-18T08:36:02.510Z,29.50
2022-12-18T08:38:28.948Z,29.90
2022-12-18T08:40:59.241Z,32.70
2022-12-18T08:43:44.215Z,29.92
2022-12-18T08:46:10.626Z,33.75
2022-12-18T08:48:37.009Z,30.40
2022-12-18T08:51:03.314Z,29.88
2022-12-18T08:53:35.336Z,30.42
2022-12-18T08:56:02.070Z,28.90
2022-12-18T08:58:28.313Z,43.67
2022-12-18T09:00:54.584Z,32.63
2022-12-18T09:03:23.470Z,31.10
2022-12-18T09:05:49.859Z,30.38
2022-12-18T09:08:16.178Z,30.92
2022-12-18T09:10:44.186Z,31.10
2022-12-18T09:13:11.364Z,30.20
2022-12-18T09:15:41.459Z,40.83
2022-12-18T09:18:08.064Z,36.05
2022-12-18T09:20:34.288Z,30.67
2022-12-18T09:23:00.538Z,34.25
2022-12-18T09:25:28.657Z,26.25
2022-12-18T09:27:54.881Z,26.17
2022-12-18T09:30:21.117Z,29.35
2022-12-18T09:32:47.403Z,33.65
2022-12-18T09:35:13.754Z,27.33
2022-12-18T09:37:40.062Z,26.25
2022-12-18T09:40:06.681Z,21.27
2022-12-18T09:42:33.290Z,27.35
2022-12-18T09:45:00.291Z,32.15
2022-12-18T09:47:29.622Z,36.53
2022-12-18T09:50:03.787Z,29.33
2022-12-18T09:52:42.657Z,26.13
2022-12-18T09:55:18.262Z,21.92
2022-12-18T09:57:48.560Z,26.40
2022-12-18T10:00:19.936Z,25.05
2022-12-18T10:02:47.119Z,24.23
2022-12-18T10:05:34.285Z,25.98
2022-12-18T10:08:03.520Z,25.88
2022-12-18T10:10:38.738Z,26.70
2022-12-18T10:13:10.218Z,25.00
2022-12-18T10:15:42.450Z,23.23
2022-12-18T10:18:27.409Z,25.70
2022-12-18T10:20:55.235Z,24.23
2022-12-18T10:23:27.638Z,27.63
2022-12-18T10:25:53.886Z,24.83
2022-12-18T10:28:20.829Z,23.50
2022-12-18T10:30:47.464Z,25.92
2022-12-18T10:33:21.011Z,24.23
2022-12-18T10:35:48.229Z,24.42
2022-12-18T10:38:17.401Z,23.17
2022-12-18T10:40:55.886Z,23.80
2022-12-18T10:43:42.456Z,20.58
2022-12-18T10:46:08.840Z,26.40
2022-12-18T10:48:37.519Z,27.15
2022-12-18T10:51:12.768Z,23.85
2022-12-18T10:53:40.674Z,22.02
2022-12-18T10:56:07.367Z,21.35
2022-12-18T10:58:37.921Z,25.23
2022-12-18T11:01:06.161Z,28.05
2022-12-18T11:03:34.097Z,22.80
2022-12-18T11:06:08.449Z,32.70
2022-12-18T11:08:35.042Z,24.90
2022-12-18T11:11:01.558Z,27.75
2022-12-18T11:13:30.147Z,27.35
2022-12-18T11:15:56.642Z,29.35
2022-12-18T11:18:25.750Z,23.77
2022-12-18T11:20:58.324Z,22.13
2022-12-18T11:23:25.324Z,22.70
2022-12-18T11:25:52.835Z,23.75
2022-12-18T11:28:38.378Z,25.27
2022-12-18T11:31:13.665Z,24.02
2022-12-18T11:33:53.332Z,23.80
2022-12-18T11:36:26.634Z,21.92
2022-12-18T11:38:54.738Z,26.85
2022-12-18T11:41:24.126Z,25.30
2022-12-18T11:44:03.296Z,35.53
2022-12-18T11:46:37.638Z,31.23
2022-12-18T11:49:12.905Z,27.90
2022-12-18T11:51:44.325Z,26.20
2022-12-18T11:54:14.731Z,27.75
2022-12-18T11:56:47.139Z,24.33
2022-12-18T11:59:31.880Z,22.88
2022-12-18T12:01:58.217Z,19.75
2022-12-18T12:04:43.261Z,26.05
2022-12-18T12:07:19.024Z,25.60
2022-12-18T12:09:51.783Z,20.58
2022-12-18T12:12:48.736Z,22.55
2022-12-18T12:15:18.707Z,24.15
2022-12-18T12:17:56.915Z,23.13
2022-12-18T12:20:26.807Z,27.13
2022-12-18T12:23:02.326Z,24.67
2022-12-18T12:25:28.530Z,22.88
2022-12-18T12:28:13.312Z,23.90
2022-12-18T12:30:45.554Z,22.52
2022-12-18T12:33:23.966Z,21.95
2022-12-18T12:35:50.321Z,21.85
2022-12-18T12:38:31.942Z,24.13
2022-12-18T12:41:04.231Z,23.77
2022-12-18T12:43:30.520Z,24.10
2022-12-18T12:48:56.762Z,24.25
2022-12-18T12:51:24.969Z,23.38
2022-12-18T12:53:52.861Z,26.05
2022-12-18T12:56:20.804Z,25.02
2022-12-18T12:58:50.024Z,30.52
2022-12-18T13:01:35.151Z,30.95
2022-12-18T13:04:01.798Z,25.77
2022-12-18T13:06:46.712Z,26.80
2022-12-18T13:09:13.528Z,27.48
2022-12-18T13:12:00.401Z,25.80
2022-12-18T13:14:31.383Z,25.83
2022-12-18T13:17:17.321Z,27.45
2022-12-18T13:19:43.929Z,35.05
2022-12-18T13:22:22.634Z,26.98
2022-12-18T13:24:49.137Z,29.20
2022-12-18T13:27:51.884Z,34.40
2022-12-18T13:30:34.062Z,28.85
2022-12-18T13:33:15.671Z,27.23
2022-12-18T13:35:42.675Z,27.00
2022-12-18T13:38:21.248Z,35.08
2022-12-18T13:40:50.790Z,27.20
2022-12-18T13:43:19.962Z,27.52
2022-12-18T13:45:59.439Z,25.38
2022-12-18T13:48:26.790Z,27.05
2022-12-18T13:50:55.868Z,25.30
2022-12-18T13:53:51.458Z,33.63
2022-12-18T13:56:25.316Z,25.30
2022-12-18T13:59:07.274Z,24.85
2022-12-18T14:01:33.668Z,24.90
2022-12-18T14:04:18.660Z,28.42
2022-12-18T14:06:46.362Z,30.42
2022-12-18T14:09:21.602Z,30.90
2022-12-18T14:11:49.276Z,30.73
2022-12-18T14:14:18.932Z,33.13
2022-12-18T14:16:46.667Z,28.30
2022-12-18T14:19:15.942Z,33.75
2022-12-18T14:21:46.759Z,26.70
2022-12-18T14:26:39.595Z,26.58
2022-12-18T14:29:19.508Z,23.17
2022-12-18T14:31:46.497Z,29.00
2022-12-18T14:34:16.145Z,29.17
2022-12-18T14:36:42.598Z,26.65
2022-12-18T14:39:17.346Z,21.92
2022-12-18T14:41:43.642Z,25.08
2022-12-18T14:44:12.948Z,26.98
2022-12-18T14:46:40.334Z,23.50
2022-12-18T14:49:19.905Z,30.63
2022-12-18T14:51:53.985Z,28.88
2022-12-18T14:54:21.285Z,27.92
2022-12-18T14:56:49.290Z,30.00
2022-12-18T14:59:24.735Z,25.73
2022-12-18T15:01:51.279Z,30.17
2022-12-18T15:04:44.998Z,26.23
2022-12-18T15:07:11.278Z,31.75
2022-12-18T15:09:38.337Z,28.95
2022-12-18T15:12:05.248Z,33.55
2022-12-18T15:14:36.188Z,28.52
2022-12-18T15:17:04.266Z,30.23
2022-12-18T15:19:35.658Z,37.58
2022-12-18T15:22:06.381Z,30.70
2022-12-18T15:24:33.432Z,31.05
2022-12-18T15:27:00.276Z,26.42
2022-12-18T15:29:27.098Z,28.25
2022-12-18T15:32:00.569Z,26.00
2022-12-18T15:34:27.579Z,30.50
2022-12-18T15:36:53.910Z,30.30
2022-12-18T15:39:20.236Z,34.75
2022-12-18T15:42:05.610Z,29.15
2022-12-18T15:44:31.889Z,35.58
2022-12-18T15:46:58.845Z,28.08
2022-12-18T15:49:25.333Z,27.08
2022-12-18T15:51:55.487Z,25.60
2022-12-18T15:54:40.742Z,39.55
2022-12-18T15:57:24.636Z,37.28
2022-12-18T15:59:53.537Z,29.27
2022-12-18T16:02:20.693Z,31.40
2022-12-18T16:04:47.254Z,32.83
2022-12-18T16:07:15.115Z,33.08
2022-12-18T16:09:44.445Z,37.47
2022-12-18T16:12:16.308Z,35.17
2022-12-18T16:14:42.683Z,37.60
2022-12-18T16:17:11.182Z,31.48
2022-12-18T16:19:37.474Z,35.55
2022-12-18T16:22:03.786Z,32.25
2022-12-18T16:24:31.499Z,35.40
2022-12-18T16:27:00.115Z,34.63
2022-12-18T16:29:28.321Z,26.95
2022-12-18T16:31:55.240Z,31.23
2022-12-18T16:34:23.639Z,27.88
2022-12-18T16:36:54.275Z,33.03
2022-12-18T16:39:20.970Z,31.23
2022-12-18T16:41:47.277Z,35.58
2022-12-18T16:44:13.727Z,29.13
2022-12-18T16:46:40.234Z,33.60
2022-12-18T16:49:06.691Z,33.55
2022-12-18T16:51:35.763Z,36.70
2022-12-18T16:54:05.123Z,34.47
2022-12-18T16:56:34.518Z,29.20
2022-12-18T16:59:01.940Z,29.60
2022-12-18T17:01:32.127Z,31.63
2022-12-18T17:04:04.924Z,31.67
2022-12-18T17:06:32.886Z,34.95
2022-12-18T17:09:06.660Z,30.42
2022-12-18T17:11:34.237Z,30.70
2022-12-18T17:14:00.542Z,30.35
2022-12-18T17:16:27.679Z,28.77
2022-12-18T17:18:54.503Z,31.83
2022-12-18T17:21:20.807Z,35.40
2022-12-18T17:23:47.090Z,39.55
2022-12-18T17:26:13.643Z,34.40
2022-12-18T17:28:41.013Z,36.65
2022-12-18T17:31:14.429Z,40.78
2022-12-18T17:33:41.129Z,30.80
2022-12-18T17:36:07.834Z,34.95
2022-12-18T17:38:34.481Z,33.53
2022-12-18T17:41:02.122Z,31.75
2022-12-18T17:43:28.387Z,30.67
2022-12-18T17:45:54.838Z,32.17
2022-12-18T17:48:23.218Z,32.63
2022-12-18T17:50:49.625Z,29.63
2022-12-18T17:53:15.926Z,31.98
2022-12-18T17:55:42.250Z,38.55
2022-12-18T17:58:08.560Z,36.10
2022-12-18T18:00:34.942Z,31.77
2022-12-18T18:03:01.274Z,38.25
2022-12-18T18:05:27.619Z,30.38
2022-12-18T18:07:55.072Z,34.30
2022-12-18T18:10:21.296Z,33.20
2022-12-18T18:13:06.059Z,35.90
2022-12-18T18:15:32.317Z,38.95
2022-12-18T18:18:00.230Z,37.85
2022-12-18T18:20:28.471Z,34.35
2022-12-18T18:22:54.963Z,33.50
2022-12-18T18:25:21.241Z,35.42
2022-12-18T18:27:48.146Z,34.72
2022-12-18T18:30:14.928Z,34.40
2022-12-18T18:32:41.407Z,36.90
2022-12-18T18:35:12.548Z,39.28
2022-12-18T18:37:51.020Z,37.08
2022-12-18T18:40:18.053Z,37.35
2022-12-18T18:42:44.341Z,36.85
2022-12-18T18:45:10.664Z,35.72
2022-12-18T18:47:36.903Z,32.85
2022-12-18T18:50:03.313Z,37.03
2022-12-18T18:52:29.950Z,36.08
2022-12-18T18:55:12.145Z,34.83
2022-12-18T18:57:39.749Z,36.72
2022-12-18T19:00:06.378Z,31.25
2022-12-18T19:02:32.839Z,32.95
2022-12-18T19:04:59.165Z,35.42
2022-12-18T19:07:30.969Z,33.33
2022-12-18T19:09:58.189Z,32.08
2022-12-18T19:12:49.943Z,33.25
2022-12-18T19:15:16.211Z,36.90
2022-12-18T19:17:42.772Z,34.63
2022-12-18T19:22:39.647Z,39.03
2022-12-18T19:25:06.420Z,39.10
2022-12-18T19:27:32.991Z,38.45
2022-12-18T19:29:59.213Z,36.58
2022-12-18T19:32:25.592Z,32.58
2022-12-18T19:34:52.906Z,35.38
2022-12-18T19:37:19.508Z,37.50
2022-12-18T19:39:45.954Z,33.92
2022-12-18T19:42:12.676Z,32.58
2022-12-18T19:44:39.695Z,31.48
2022-12-18T19:47:06.013Z,33.95
2022-12-18T19:49:32.662Z,35.28
2022-12-18T19:51:58.965Z,37.08
2022-12-18T19:54:25.926Z,38.45
2022-12-18T19:56:53.351Z,41.70
2022-12-18T19:59:19.590Z,48.15
2022-12-18T20:01:46.014Z,37.03
2022-12-18T20:04:12.390Z,39.15
2022-12-18T20:06:51.936Z,38.58
2022-12-18T20:09:18.718Z,36.83
2022-12-18T20:11:45.681Z,39.10
2022-12-18T20:14:12.569Z,38.65
2022-12-18T20:16:39.091Z,39.35
2022-12-18T20:19:05.535Z,42.72
2022-12-18T20:21:32.191Z,38.20
2022-12-18T20:23:59.990Z,40.60
2022-12-18T20:26:26.923Z,37.08
2022-12-18T20:28:53.993Z,38.08
2022-12-18T20:31:20.364Z,43.95
2022-12-18T20:33:48.731Z,39.15
2022-12-18T20:36:19.149Z,32.70
2022-12-18T20:38:47.729Z,39.08
2022-12-18T20:41:17.354Z,39.55
2022-12-18T20:43:44.322Z,45.45
2022-12-18T20:46:12.399Z,44.70
2022-12-18T20:48:38.742Z,41.25
2022-12-18T20:51:07.010Z,45.08
2022-12-18T20:53:33.822Z,40.50
2022-12-18T20:56:01.477Z,39.55
2022-12-18T20:58:27.966Z,37.90
2022-12-18T21:01:23.572Z,41.60
2022-12-18T21:03:50.471Z,38.70
2022-12-18T21:06:18.023Z,46.05
2022-12-18T21:08:44.477Z,42.03
2022-12-18T21:11:38.655Z,42.67
2022-12-18T21:14:18.380Z,38.22
2022-12-18T21:16:44.825Z,47.85
2022-12-18T21:19:15.422Z,48.95
2022-12-18T21:21:42.539Z,46.55
2022-12-18T21:24:09.849Z,52.20
2022-12-18T21:26:40.463Z,44.45
2022-12-18T21:29:12.454Z,53.05
2022-12-18T21:31:39.037Z,41.67
2022-12-18T21:34:05.987Z,46.63
2022-12-18T21:36:32.913Z,45.00
2022-12-18T21:38:59.565Z,45.15
2022-12-18T21:41:44.849Z,46.40
2022-12-18T21:44:12.927Z,42.25
2022-12-18T21:46:43.995Z,47.35
2022-12-18T21:49:10.846Z,40.40
2022-12-18T21:51:37.482Z,42.03
2022-12-18T21:54:03.813Z,46.50
2022-12-18T21:56:46.280Z,42.88
2022-12-18T21:59:13.750Z,41.42
2022-12-18T22:01:40.059Z,45.40
2022-12-18T22:04:06.674Z,50.78
2022-12-18T22:06:33.097Z,45.80
2022-12-18T22:08:59.377Z,50.83
2022-12-18T22:11:25.642Z,43.80
2022-12-18T22:13:52.042Z,45.20
2022-12-18T22:16:18.401Z,46.03
2022-12-18T22:18:44.746Z,45.08
2022-12-18T22:21:29.556Z,48.88
2022-12-18T22:23:57.396Z,53.72
2022-12-18T22:26:24.583Z,43.10
2022-12-18T22:29:09.255Z,45.63
2022-12-18T22:31:36.033Z,46.67
2022-12-18T22:34:03.011Z,46.30
2022-12-18T22:36:34.003Z,46.33
2022-12-18T22:39:00.214Z,46.97
2022-12-18T22:41:26.431Z,50.15
2022-12-18T22:43:55.175Z,50.35
2022-12-18T22:46:21.958Z,46.00
2022-12-18T22:48:49.609Z,49.00
2022-12-18T22:51:16.888Z,48.88
2022-12-18T22:53:43.614Z,44.95
2022-12-18T22:56:17.105Z,48.70
2022-12-18T22:58:50.136Z,49.28
2022-12-18T23:01:21.505Z,48.50
2022-12-18T23:03:48.057Z,47.30
2022-12-18T23:06:14.827Z,46.53
2022-12-18T23:08:41.314Z,47.92
2022-12-18T23:11:08.054Z,47.15
2022-12-18T23:13:34.595Z,50.88
2022-12-18T23:16:03.936Z,48.83
2022-12-18T23:18:30.362Z,51.65
2022-12-18T23:20:56.662Z,51.22
2022-12-18T23:23:24.158Z,48.03
2022-12-18T23:25:50.410Z,49.22
2022-12-18T23:28:16.683Z,49.17
2022-12-18T23:30:42.982Z,55.85
2022-12-18T23:33:09.286Z,51.88
2022-12-18T23:35:35.824Z,54.58
2022-12-18T23:38:02.150Z,54.85
2022-12-18T23:40:29.322Z,47.67
2022-12-18T23:42:55.726Z,49.75
2022-12-18T23:45:21.948Z,53.85
2022-12-18T23:47:48.286Z,56.50
2022-12-18T23:50:17.712Z,54.90
2022-12-18T23:52:43.998Z,59.38
2022-12-18T23:55:10.226Z,58.85
2022-12-18T23:57:36.523Z,57.70
